This is the latest recevied weather packets stored in our database for station/object IW2NIA-3. If no packets are shown the sender has not sent any weather packets the latest 10 day(s).
| Time | Temp. | Humidity | Pressure | Rain* | Wind** | Luminosity | Snow |
|---|---|---|---|---|---|---|---|
| 1788664711 | 23.33° C | 63% | 1020 hPa | 0 mm | - | - | - |
| 1788663824 | 23.33° C | 61% | 1019.8 hPa | 0 mm | - | - | - |
| 1788662922 | 23.33° C | 60% | 1019.7 hPa | 0 mm | - | - | - |
| 1788662020 | 23.33° C | 59% | 1019.7 hPa | 0 mm | - | - | - |
| 1788661120 | 23.33° C | 58% | 1019.6 hPa | 0 mm | - | - | - |
| 1788660212 | 23.33° C | 59% | 1019.6 hPa | 0 mm | - | - | - |
| 1788659326 | 23.33° C | 59% | 1019.4 hPa | 0 mm | - | - | - |
| 1788658421 | 22.78° C | 62% | 1019.5 hPa | 0 mm | - | - | - |
| 1788657520 | 22.22° C | 63% | 1019.3 hPa | 0 mm | - | - | - |
| 1788656615 | 22.22° C | 61% | 1019.2 hPa | 0 mm | - | - | - |
| 1788655722 | 22.22° C | 60% | 1019.2 hPa | 0 mm | - | - | - |
| 1788654818 | 22.78° C | 59% | 1019.1 hPa | 0 mm | - | - | - |
| 1788653907 | 22.78° C | 59% | 1019.1 hPa | 0 mm | - | - | - |
| 1788653009 | 22.78° C | 58% | 1019.3 hPa | 0 mm | - | - | - |
| 1788652114 | 22.78° C | 58% | 1019.2 hPa | 0 mm | - | - | - |
| 1788651224 | 23.33° C | 59% | 1019.2 hPa | 0 mm | - | - | - |
| 1788650320 | 25° C | 50% | 1018.7 hPa | 0 mm | - | - | - |
| 1788649418 | 25° C | 50% | 1018.6 hPa | 0 mm | - | - | - |
| 1788648518 | 25° C | 51% | 1018.5 hPa | 0 mm | - | - | - |
| 1788647622 | 24.44° C | 52% | 1018.4 hPa | 0 mm | - | - | - |
| 1788646717 | 25° C | 52% | 1018.3 hPa | 0 mm | - | - | - |
| 1788645816 | 25° C | 53% | 1018.3 hPa | 0 mm | - | - | - |
| 1788644944 | 25° C | 55% | 1018.3 hPa | 0 mm | - | - | - |
| 1788644010 | 25° C | 55% | 1018.3 hPa | 0 mm | - | - | - |
| 1788643127 | 25° C | 57% | 1018.3 hPa | 0 mm | - | - | - |
* Rain latest hour (hover to see other rain measurements)
** Current wind speed in m/s (hover to see current wind gust speed)